Main page
METAR-TAF:

METAR-TAF

Airports :

Reus Airport

Reus, Spain

latitude: 41-09N, longitude: 001-10E, elevation: 71 m

Current weather observation

The report was made 43 minutes ago, at 13:00 UTC
Wind 8 kt from the South, varying between East/Southeast and West/Southwest
Temperature 30°C
Humidity 59%
Pressure 1016 hPa
Visibility 10 km or more
Few clouds at a height of 3000 ft

METAR: LERS 061300Z 19008KT 110V250 9999 FEW030 30/21 Q1016

Time: 15:43 (13:43 UTC)

Forecast

The report was made 5 hours and 43 minutes ago, at 08:00 UTC
Forecast valid from 06 at 09 UTC to 07 at 09 UTC
Wind 4 kt from variable directions
Visibility 10 km or more
Few clouds at a height of 3000 ft
Becoming
from 06 at 09 UTC to 06 at 11 UTC
Wind 10 kt from the South/Southwest
Becoming
from 06 at 19 UTC to 06 at 21 UTC
Wind 3 kt from variable directions

TAF: LERS 060800Z 0609/0709 VRB04KT 9999 FEW030 TX30/0612Z TN20/0705Z BECMG 0609/0611 20010KT BECMG 0619/0621 VRB03KT

Weather observations and forecasts of more than 4000 airports (METAR and TAF reports).

The available stations are represented by yellow and red dots on the map.

Hover mouse over dot to see the name of the station.

Then click to see weather observations and forecasts.

To change the map : click on the green buttons with a black cross to zoom in, on the green button with a dash to zoom out, or on the green arrows for adjacent maps.


METAR-TAF: